Michigan — WDF5344 — position and weather

sailwx.info

Track history (hours):
 
Tides and Currents Weather Stations Pressure Air Temp Water Temp Dewpoint Dewpoint Depression Visibility Wind Speed Wind Dir Waves Ship Positions

Michigan

Owner: GATX Third Aircraft Corporation, San Francisco, CA. More information available from US FCC via Universal Licensing System and Coast Guard Vessel Documentation Center.

Last reported at 2017-Mar-29 04:16 UTC. Time now 2017-Mar-29 07:27 UTC.
Position N 45°14' W 074°01'.

Length 144 m.

Type: Ship (hazmat cat D). MMSI: 303583000.

Date/timePositionNaut miles runAvg speedWind from/ knotsBaromVisibWave heightAir tempDewpointWater temp
2017-Mar-29 04:16N 45°14' W 074°01'6 8.4
2017-Mar-29 03:34N 45°18' W 073°56'1 0.8
2017-Mar-29 02:31N 45°19' W 073°55'5 5.7
2017-Mar-29 01:33N 45°23' W 073°49'8 7.6
2017-Mar-29 00:33N 45°24' W 073°39'4 4.0
2017-Mar-28 23:29N 45°24' W 073°33'3 0.1
2017-Mar-27 13:31N 45°27' W 073°30'4 3.5
2017-Mar-27 12:24N 45°24' W 073°34'5 6.0
2017-Mar-27 11:33N 45°25' W 073°42'1010.1
2017-Mar-27 10:33N 45°20' W 073°54'2 2.2
2017-Mar-27 09:34N 45°18' W 073°56'9 7.3
2017-Mar-27 08:19N 45°14' W 074°07'  
2017-Mar-24 22:00N 41°48' W 082°36'96 8.0 240 / 191016.5 5.4
2017-Mar-24 10:00N 43°24' W 082°30'77 9.6 180 / 121016.5 5.4
2017-Mar-24 02:00N 44°36' W 083°06'18 9.0 170 / 241022.6
2017-Mar-24 00:00N 44°54' W 083°06'18 9.2 180 / 241024.7 5.4
2017-Mar-23 22:00N 45°12' W 083°12'1717.4 180 / 211026.4 5.4
2017-Mar-23 21:00N 45°24' W 083°30'48 9.7 140 / 201026.710.8 2.2
2017-Mar-23 16:00N 45°48' W 084°30'9 6.5 180 / 101031.110.8 1.1
2017-Mar-23 14:33N 45°49' W 084°43'9 8.7
2017-Mar-23 13:32N 45°50' W 084°56'713.6
2017-Mar-23 13:00N 45°48' W 085°06'4 9.9 180 / 81031.1 5.4
2017-Mar-23 12:34N 45°51' W 085°10'1010.2
2017-Mar-23 11:33N 45°53' W 085°24'10 9.7
2017-Mar-23 10:34N 45°52' W 085°38'1010.3
2017-Mar-23 09:33N 45°47' W 085°51'29 0.6
2017-Mar-21 06:16N 45°34' W 086°29'3011.0
2017-Mar-21 03:33N 45°51' W 085°53'1110.9
2017-Mar-21 02:33N 45°53' W 085°38'1111.0
2017-Mar-21 01:33N 45°53' W 085°22'1110.9
2017-Mar-21 00:33N 45°51' W 085°07'1110.7
2017-Mar-20 23:33N 45°50' W 084°52'10 9.7
2017-Mar-20 22:33N 45°50' W 084°38'1010.2
2017-Mar-20 21:32N 45°48' W 084°23'8 6.3
2017-Mar-20 20:19N 45°41' W 084°27'2 0.1
2017-Mar-20 00:33N 45°39' W 084°28'25 9.9
2017-Mar-19 22:00N 45°30' W 083°54'104 9.4 100 / 71025.0 0.0 0.5
2017-Mar-19 11:00N 44°00' W 082°42'   360 / 101026.010.8 -0.0
Track history (hours):
 
Tides and Currents Weather Stations Pressure Air Temp Water Temp Dewpoint Dewpoint Depression Visibility Wind Speed Wind Dir Waves Ship Positions

Michigan

Owner: GATX Third Aircraft Corporation, San Francisco, CA. More information available from US FCC via Universal Licensing System and Coast Guard Vessel Documentation Center.

Last reported at 2017-Mar-29 04:16 UTC. Time now 2017-Mar-29 07:27 UTC.
Position N 45°14' W 074°01'.

Length 144 m.

Type: Ship (hazmat cat D). MMSI: 303583000.

Date/timePositionNaut miles runAvg speedWind from/ knotsBaromVisibWave heightAir tempDewpointWater temp
2017-Mar-29 04:16N 45°14' W 074°01'6 8.4
2017-Mar-29 03:34N 45°18' W 073°56'1 0.8
2017-Mar-29 02:31N 45°19' W 073°55'5 5.7
2017-Mar-29 01:33N 45°23' W 073°49'8 7.6
2017-Mar-29 00:33N 45°24' W 073°39'4 4.0
2017-Mar-28 23:29N 45°24' W 073°33'3 0.1
2017-Mar-27 13:31N 45°27' W 073°30'4 3.5
2017-Mar-27 12:24N 45°24' W 073°34'5 6.0
2017-Mar-27 11:33N 45°25' W 073°42'1010.1
2017-Mar-27 10:33N 45°20' W 073°54'2 2.2
2017-Mar-27 09:34N 45°18' W 073°56'9 7.3
2017-Mar-27 08:19N 45°14' W 074°07'  
2017-Mar-24 22:00N 41°48' W 082°36'96 8.0 240 / 191016.5 5.4
2017-Mar-24 10:00N 43°24' W 082°30'77 9.6 180 / 121016.5 5.4
2017-Mar-24 02:00N 44°36' W 083°06'18 9.0 170 / 241022.6
2017-Mar-24 00:00N 44°54' W 083°06'18 9.2 180 / 241024.7 5.4
2017-Mar-23 22:00N 45°12' W 083°12'1717.4 180 / 211026.4 5.4
2017-Mar-23 21:00N 45°24' W 083°30'48 9.7 140 / 201026.710.8 2.2
2017-Mar-23 16:00N 45°48' W 084°30'9 6.5 180 / 101031.110.8 1.1
2017-Mar-23 14:33N 45°49' W 084°43'9 8.7
2017-Mar-23 13:32N 45°50' W 084°56'713.6
2017-Mar-23 13:00N 45°48' W 085°06'4 9.9 180 / 81031.1 5.4
2017-Mar-23 12:34N 45°51' W 085°10'1010.2
2017-Mar-23 11:33N 45°53' W 085°24'10 9.7
2017-Mar-23 10:34N 45°52' W 085°38'1010.3
2017-Mar-23 09:33N 45°47' W 085°51'29 0.6
2017-Mar-21 06:16N 45°34' W 086°29'3011.0
2017-Mar-21 03:33N 45°51' W 085°53'1110.9
2017-Mar-21 02:33N 45°53' W 085°38'1111.0
2017-Mar-21 01:33N 45°53' W 085°22'1110.9
2017-Mar-21 00:33N 45°51' W 085°07'1110.7
2017-Mar-20 23:33N 45°50' W 084°52'10 9.7
2017-Mar-20 22:33N 45°50' W 084°38'1010.2
2017-Mar-20 21:32N 45°48' W 084°23'8 6.3
2017-Mar-20 20:19N 45°41' W 084°27'2 0.1
2017-Mar-20 00:33N 45°39' W 084°28'25 9.9
2017-Mar-19 22:00N 45°30' W 083°54'104 9.4 100 / 71025.0 0.0 0.5
2017-Mar-19 11:00N 44°00' W 082°42'   360 / 101026.010.8 -0.0

Dump ship's entire track history